MSC Flavia — 3FBD7 — position and weather

sailwx.info

Track history (hours):
 
Tides and Currents Weather Stations Pressure Air Temp Water Temp Dewpoint Dewpoint Depression Visibility Wind Speed Wind Dir Waves Ship Positions

MSC Flavia

Last reported at 2015-May-15 12:32 UTC. Time now 2015-May-25 05:33 UTC.
Position N 35°04' E 129°20'.
Warning: this ship's position is 9 days out of date.

Length 366 m; draft 11.4 m.

Type: Ship (hazmat cat A). MMSI: 373004000.

Date/timePositionNaut miles runAvg speedWind from/ knotsBaromVisibWave heightAir tempDewpointWater temp
2015-May-15 12:32N 35°04' E 129°20'72 1.9
2015-May-13 23:06N 34°01' E 128°38'14910.9
2015-May-13 09:27N 31°50' E 127°11'1111.5
2015-May-13 08:29N 31°41' E 127°04'1111.6
2015-May-13 07:34N 31°33' E 126°56'1111.3
2015-May-13 06:34N 31°24' E 126°49'1111.4
2015-May-13 05:33N 31°15' E 126°40'1111.3
2015-May-13 04:33N 31°06' E 126°32'1210.6
2015-May-13 03:26N 30°56' E 126°24'1010.6
2015-May-13 02:30N 30°49' E 126°16'2110.9
2015-May-13 00:33N 30°32' E 126°01'1210.7
2015-May-12 23:27N 30°23' E 125°52'1513.7
2015-May-12 22:21N 30°13' E 125°39'1914.7
2015-May-12 21:04N 29°59' E 125°24'1114.7
2015-May-12 20:19N 29°51' E 125°16'1114.8
2015-May-12 19:33N 29°44' E 125°06'1914.4
2015-May-12 18:13N 29°31' E 124°49'1014.5
2015-May-12 17:30N 29°23' E 124°41'4314.5
2015-May-12 14:30N 28°50' E 124°09'1414.7
2015-May-12 13:34N 28°40' E 123°58'1515.1
2015-May-12 12:33N 28°29' E 123°47'33216.4
2015-May-11 16:21N 24°36' E 119°22'1619.4
2015-May-11 15:33N 24°28' E 119°08'4018.2
2015-May-11 13:21N 24°13' E 118°27'1417.0
2015-May-11 12:33N 24°17' E 118°13'1312.7
2015-May-11 11:33N 24°26' E 118°03'1 0.5
2015-May-11 09:16N 24°27' E 118°02'0 0.0
2015-May-11 08:22N 24°27' E 118°02'0 0.0
2015-May-11 06:28N 24°27' E 118°02'0 0.0
2015-May-11 02:16N 24°27' E 118°02'0 0.0
2015-May-11 01:28N 24°27' E 118°02'0 0.0
2015-May-11 00:16N 24°27' E 118°02'0 0.0
2015-May-10 23:22N 24°27' E 118°02'0 0.1
2015-May-10 22:28N 24°26' E 118°02'7 7.9
2015-May-10 21:33N 24°22' E 118°08'10 9.6
2015-May-10 20:33N 24°15' E 118°15'8 7.9
2015-May-10 19:32N 24°09' E 118°20'9 9.7
2015-May-10 18:33N 23°59' E 118°20'12 8.9
2015-May-10 17:11N 23°49' E 118°13'96 9.5
2015-May-10 07:06N 22°49' E 116°52'124 9.7
2015-May-09 18:17N 22°18' E 114°42'28 1.4
2015-May-08 22:17N 22°34' E 114°18'14 7.0
2015-May-08 20:15N 22°23' E 114°28'1116.0
2015-May-08 19:33N 22°13' E 114°24'1311.6
2015-May-08 18:28N 22°12' E 114°11'8 9.1
2015-May-08 17:33N 22°20' E 114°07'0 0.3
2015-May-08 16:29N 22°20' E 114°07'0 0.0
2015-May-08 15:32N 22°20' E 114°07'0 0.0
2015-May-08 14:32N 22°20' E 114°07'0 0.0
2015-May-08 13:33N 22°20' E 114°07'0 0.0
2015-May-08 12:32N 22°20' E 114°07'0 0.0
2015-May-08 11:29N 22°20' E 114°07'0 0.0
2015-May-08 10:29N 22°20' E 114°07'0 0.0
2015-May-08 09:32N 22°20' E 114°07'0 0.0
2015-May-08 08:29N 22°20' E 114°07'0 0.0
2015-May-08 06:32N 22°20' E 114°07'16 6.8
2015-May-08 04:09N 22°09' E 114°20'27 5.9
2015-May-07 23:33N 22°08' E 113°51'1212.4
2015-May-07 22:33N 22°20' E 113°49'9 9.3
2015-May-07 21:33N 22°29' E 113°52'0 0.1
2015-May-07 20:29N 22°29' E 113°52'0 0.0
2015-May-07 19:23N 22°29' E 113°52'0 0.0
2015-May-07 18:29N 22°29' E 113°52'0 0.0
2015-May-07 17:11N 22°29' E 113°52'0 0.0
2015-May-07 16:17N 22°29' E 113°52'0 0.0
2015-May-07 15:29N 22°29' E 113°52'0 0.0
2015-May-07 14:29N 22°29' E 113°52'0 0.0
2015-May-07 13:29N 22°29' E 113°52'0 0.0
2015-May-07 12:17N 22°29' E 113°52'0 0.0
2015-May-07 11:29N 22°29' E 113°52'0 0.0
2015-May-07 06:11N 22°29' E 113°52'0 0.0
2015-May-07 03:05N 22°29' E 113°52'1 0.9
2015-May-07 02:15N 22°29' E 113°52'811.5
2015-May-07 01:33N 22°21' E 113°49'1313.2
2015-May-07 00:33N 22°08' E 113°51'9 8.4
2015-May-06 23:30N 21°59' E 113°52'2811.4
2015-May-06 21:05N 22°02' E 114°21'916.5
2015-May-06 20:33N 22°09' E 114°27'17 0.7
2015-May-05 19:23N 22°24' E 114°35'0 0.0
2015-May-05 17:05N 22°24' E 114°35'  
Track history (hours):
 
Tides and Currents Weather Stations Pressure Air Temp Water Temp Dewpoint Dewpoint Depression Visibility Wind Speed Wind Dir Waves Ship Positions

MSC Flavia

Last reported at 2015-May-15 12:32 UTC. Time now 2015-May-25 05:33 UTC.
Position N 35°04' E 129°20'.
Warning: this ship's position is 9 days out of date.

Length 366 m; draft 11.4 m.

Type: Ship (hazmat cat A). MMSI: 373004000.

Date/timePositionNaut miles runAvg speedWind from/ knotsBaromVisibWave heightAir tempDewpointWater temp
2015-May-15 12:32N 35°04' E 129°20'72 1.9
2015-May-13 23:06N 34°01' E 128°38'14910.9
2015-May-13 09:27N 31°50' E 127°11'1111.5
2015-May-13 08:29N 31°41' E 127°04'1111.6
2015-May-13 07:34N 31°33' E 126°56'1111.3
2015-May-13 06:34N 31°24' E 126°49'1111.4
2015-May-13 05:33N 31°15' E 126°40'1111.3
2015-May-13 04:33N 31°06' E 126°32'1210.6
2015-May-13 03:26N 30°56' E 126°24'1010.6
2015-May-13 02:30N 30°49' E 126°16'2110.9
2015-May-13 00:33N 30°32' E 126°01'1210.7
2015-May-12 23:27N 30°23' E 125°52'1513.7
2015-May-12 22:21N 30°13' E 125°39'1914.7
2015-May-12 21:04N 29°59' E 125°24'1114.7
2015-May-12 20:19N 29°51' E 125°16'1114.8
2015-May-12 19:33N 29°44' E 125°06'1914.4
2015-May-12 18:13N 29°31' E 124°49'1014.5
2015-May-12 17:30N 29°23' E 124°41'4314.5
2015-May-12 14:30N 28°50' E 124°09'1414.7
2015-May-12 13:34N 28°40' E 123°58'1515.1
2015-May-12 12:33N 28°29' E 123°47'33216.4
2015-May-11 16:21N 24°36' E 119°22'1619.4
2015-May-11 15:33N 24°28' E 119°08'4018.2
2015-May-11 13:21N 24°13' E 118°27'1417.0
2015-May-11 12:33N 24°17' E 118°13'1312.7
2015-May-11 11:33N 24°26' E 118°03'1 0.5
2015-May-11 09:16N 24°27' E 118°02'0 0.0
2015-May-11 08:22N 24°27' E 118°02'0 0.0
2015-May-11 06:28N 24°27' E 118°02'0 0.0
2015-May-11 02:16N 24°27' E 118°02'0 0.0
2015-May-11 01:28N 24°27' E 118°02'0 0.0
2015-May-11 00:16N 24°27' E 118°02'0 0.0
2015-May-10 23:22N 24°27' E 118°02'0 0.1
2015-May-10 22:28N 24°26' E 118°02'7 7.9
2015-May-10 21:33N 24°22' E 118°08'10 9.6
2015-May-10 20:33N 24°15' E 118°15'8 7.9
2015-May-10 19:32N 24°09' E 118°20'9 9.7
2015-May-10 18:33N 23°59' E 118°20'12 8.9
2015-May-10 17:11N 23°49' E 118°13'96 9.5
2015-May-10 07:06N 22°49' E 116°52'124 9.7
2015-May-09 18:17N 22°18' E 114°42'28 1.4
2015-May-08 22:17N 22°34' E 114°18'14 7.0
2015-May-08 20:15N 22°23' E 114°28'1116.0
2015-May-08 19:33N 22°13' E 114°24'1311.6
2015-May-08 18:28N 22°12' E 114°11'8 9.1
2015-May-08 17:33N 22°20' E 114°07'0 0.3
2015-May-08 16:29N 22°20' E 114°07'0 0.0
2015-May-08 15:32N 22°20' E 114°07'0 0.0
2015-May-08 14:32N 22°20' E 114°07'0 0.0
2015-May-08 13:33N 22°20' E 114°07'0 0.0
2015-May-08 12:32N 22°20' E 114°07'0 0.0
2015-May-08 11:29N 22°20' E 114°07'0 0.0
2015-May-08 10:29N 22°20' E 114°07'0 0.0
2015-May-08 09:32N 22°20' E 114°07'0 0.0
2015-May-08 08:29N 22°20' E 114°07'0 0.0
2015-May-08 06:32N 22°20' E 114°07'16 6.8
2015-May-08 04:09N 22°09' E 114°20'27 5.9
2015-May-07 23:33N 22°08' E 113°51'1212.4
2015-May-07 22:33N 22°20' E 113°49'9 9.3
2015-May-07 21:33N 22°29' E 113°52'0 0.1
2015-May-07 20:29N 22°29' E 113°52'0 0.0
2015-May-07 19:23N 22°29' E 113°52'0 0.0
2015-May-07 18:29N 22°29' E 113°52'0 0.0
2015-May-07 17:11N 22°29' E 113°52'0 0.0
2015-May-07 16:17N 22°29' E 113°52'0 0.0
2015-May-07 15:29N 22°29' E 113°52'0 0.0
2015-May-07 14:29N 22°29' E 113°52'0 0.0
2015-May-07 13:29N 22°29' E 113°52'0 0.0
2015-May-07 12:17N 22°29' E 113°52'0 0.0
2015-May-07 11:29N 22°29' E 113°52'0 0.0
2015-May-07 06:11N 22°29' E 113°52'0 0.0
2015-May-07 03:05N 22°29' E 113°52'1 0.9
2015-May-07 02:15N 22°29' E 113°52'811.5
2015-May-07 01:33N 22°21' E 113°49'1313.2
2015-May-07 00:33N 22°08' E 113°51'9 8.4
2015-May-06 23:30N 21°59' E 113°52'2811.4
2015-May-06 21:05N 22°02' E 114°21'916.5
2015-May-06 20:33N 22°09' E 114°27'17 0.7
2015-May-05 19:23N 22°24' E 114°35'0 0.0
2015-May-05 17:05N 22°24' E 114°35'  

Dump ship's entire track history